createdAt,value
2023-02-24T00:00:05.652Z,99.993896
2023-02-24T00:01:15.384Z,99.993896
2023-02-24T00:02:25.112Z,99.993896
2023-02-24T00:03:34.930Z,99.993896
2023-02-24T00:04:44.629Z,99.993896
2023-02-24T00:05:54.361Z,99.993896
2023-02-24T00:07:04.086Z,99.993896
2023-02-24T00:08:11.777Z,99.993896
2023-02-24T00:09:20.490Z,99.993896
2023-02-24T00:10:30.286Z,99.993896
2023-02-24T00:11:38.979Z,99.993896
2023-02-24T00:12:47.709Z,99.993896
2023-02-24T00:13:57.435Z,99.993896
2023-02-24T00:15:06.195Z,99.993896
2023-02-24T00:16:16.069Z,99.993896
2023-02-24T00:17:24.779Z,99.993896
2023-02-24T00:18:34.486Z,99.993896
2023-02-24T00:19:44.264Z,99.993896
2023-02-24T00:20:53.995Z,99.993896
2023-02-24T00:22:02.772Z,99.993896
2023-02-24T00:23:10.436Z,99.993896
2023-02-24T00:24:20.178Z,99.993896
2023-02-24T00:25:29.936Z,99.993896
2023-02-24T00:26:37.608Z,99.993896
2023-02-24T00:27:46.461Z,99.993896
2023-02-24T00:28:56.262Z,99.993896
2023-02-24T00:30:05.019Z,99.993896
2023-02-24T00:31:14.931Z,99.993896
2023-02-24T00:32:24.886Z,99.993896
2023-02-24T00:33:34.291Z,99.993896
2023-02-24T00:34:44.037Z,99.993896
2023-02-24T00:35:52.820Z,99.993896
2023-02-24T00:37:01.592Z,99.993896
2023-02-24T00:38:11.340Z,99.993896
2023-02-24T00:39:21.033Z,99.993896
2023-02-24T00:40:29.891Z,99.993896
2023-02-24T00:41:39.615Z,99.993896
2023-02-24T00:42:49.383Z,99.993896
2023-02-24T00:43:59.137Z,99.993896
2023-02-24T00:45:07.861Z,99.993896
2023-02-24T00:46:16.633Z,99.993896
2023-02-24T00:47:26.376Z,99.993896
2023-02-24T00:48:36.027Z,99.993896
2023-02-24T00:49:45.723Z,99.993896
2023-02-24T00:50:55.441Z,99.993896
2023-02-24T00:52:05.255Z,99.993896
2023-02-24T00:53:15.016Z,99.993896
2023-02-24T00:54:24.714Z,99.993896
2023-02-24T00:55:32.376Z,99.993896
2023-02-24T00:56:42.107Z,99.993896
2023-02-24T00:57:51.842Z,99.993896
2023-02-24T00:59:00.556Z,99.993896
2023-02-24T01:00:09.232Z,99.993896
2023-02-24T01:01:18.127Z,99.993896
2023-02-24T01:02:27.814Z,99.993896
2023-02-24T01:03:36.571Z,99.993896
2023-02-24T01:04:46.203Z,99.993896
2023-02-24T01:05:54.947Z,99.993896
2023-02-24T01:07:03.775Z,99.993896
2023-02-24T01:08:13.479Z,99.993896
2023-02-24T01:09:22.161Z,99.993896
2023-02-24T01:10:31.933Z,99.993896
2023-02-24T01:11:40.625Z,99.993896
2023-02-24T01:12:50.346Z,99.993896
2023-02-24T01:14:00.096Z,99.993896
2023-02-24T01:15:09.813Z,99.993896
2023-02-24T01:16:19.563Z,99.993896
2023-02-24T01:17:29.203Z,99.993896
2023-02-24T01:18:38.905Z,99.993896
2023-02-24T01:19:48.586Z,99.993896
2023-02-24T01:20:58.260Z,99.993896
2023-02-24T01:22:07.958Z,99.993896
2023-02-24T01:23:17.735Z,99.993896
2023-02-24T01:24:28.419Z,99.993896
2023-02-24T01:25:37.124Z,99.993896
2023-02-24T01:26:47.825Z,99.993896
2023-02-24T01:27:57.526Z,99.993896
2023-02-24T01:29:07.193Z,99.993896
2023-02-24T01:30:16.918Z,99.993896
2023-02-24T01:31:26.678Z,99.993896
2023-02-24T01:32:36.530Z,99.993896
2023-02-24T01:33:45.031Z,99.993896
2023-02-24T01:34:53.841Z,99.993896
2023-02-24T01:36:03.438Z,99.993896
2023-02-24T01:37:12.154Z,99.993896
2023-02-24T01:38:21.832Z,99.993896
2023-02-24T01:39:30.563Z,99.993896
2023-02-24T01:40:40.232Z,99.993896
2023-02-24T01:41:49.937Z,99.993896
2023-02-24T01:42:57.665Z,99.993896
2023-02-24T01:44:07.420Z,99.993896
2023-02-24T01:45:17.235Z,99.993896
2023-02-24T01:46:25.932Z,99.993896
2023-02-24T01:47:34.645Z,99.993896
2023-02-24T01:48:43.322Z,99.993896
2023-02-24T01:49:52.110Z,99.993896
2023-02-24T01:51:01.747Z,99.993896
2023-02-24T01:52:10.469Z,99.993896
2023-02-24T01:53:19.247Z,99.993896
2023-02-24T01:54:28.961Z,99.993896
2023-02-24T01:55:37.655Z,99.993896
2023-02-24T01:56:46.358Z,99.993896
2023-02-24T01:57:55.098Z,99.993896
2023-02-24T01:59:03.772Z,99.993896
2023-02-24T02:00:13.616Z,99.993896
2023-02-24T02:01:21.643Z,99.993896
2023-02-24T02:02:31.382Z,99.993896
2023-02-24T02:03:40.237Z,99.993896
2023-02-24T02:04:48.937Z,99.993896
2023-02-24T02:05:59.702Z,99.993896
2023-02-24T02:07:09.395Z,99.993896
2023-02-24T02:08:19.145Z,99.993896
2023-02-24T02:09:28.820Z,99.993896
2023-02-24T02:10:38.500Z,99.993896
2023-02-24T02:11:48.235Z,99.993896
2023-02-24T02:12:57.929Z,99.993896
2023-02-24T02:14:06.974Z,99.993896
2023-02-24T02:15:15.709Z,99.993896
2023-02-24T02:16:24.498Z,99.993896
2023-02-24T02:17:34.110Z,99.993896
2023-02-24T02:18:43.842Z,99.993896
2023-02-24T02:19:52.558Z,99.993896
2023-02-24T02:21:01.328Z,99.993896
2023-02-24T02:22:11.067Z,99.993896
2023-02-24T02:23:19.798Z,99.993896
2023-02-24T02:24:28.504Z,99.993896
2023-02-24T02:25:37.176Z,99.993896
2023-02-24T02:26:46.905Z,99.993896
2023-02-24T02:27:56.670Z,99.993896
2023-02-24T02:29:04.403Z,99.993896
2023-02-24T02:30:13.153Z,99.993896
2023-02-24T02:31:23.331Z,99.993896
2023-02-24T02:32:31.976Z,99.993896
2023-02-24T02:33:40.344Z,99.993896
2023-02-24T02:34:51.490Z,99.993896
2023-02-24T02:36:03.109Z,99.993896
2023-02-24T02:37:12.826Z,99.993896
2023-02-24T02:38:22.571Z,99.993896
2023-02-24T02:39:31.245Z,99.993896
2023-02-24T02:40:41.035Z,99.993896
2023-02-24T02:41:49.687Z,99.993896
2023-02-24T02:42:58.401Z,99.993896
2023-02-24T02:44:08.426Z,99.993896
2023-02-24T02:45:18.089Z,99.993896
2023-02-24T02:46:27.750Z,99.993896
2023-02-24T02:47:35.546Z,99.993896
2023-02-24T02:48:43.268Z,99.993896
2023-02-24T02:49:53.020Z,99.993896
2023-02-24T02:51:02.805Z,99.993896
2023-02-24T02:52:12.499Z,99.993896
2023-02-24T02:53:22.384Z,99.993896
2023-02-24T02:54:31.074Z,99.993896
2023-02-24T02:55:40.780Z,99.993896
2023-02-24T02:56:49.476Z,99.993896
2023-02-24T02:58:03.756Z,99.993896
2023-02-24T02:59:14.919Z,99.993896
2023-02-24T03:00:23.606Z,99.993896
2023-02-24T03:01:33.332Z,99.993896
2023-02-24T03:02:42.005Z,99.993896
2023-02-24T03:03:51.800Z,99.993896
2023-02-24T03:05:00.589Z,99.993896
2023-02-24T03:06:10.219Z,99.993896
2023-02-24T03:07:19.930Z,99.993896
2023-02-24T03:08:29.692Z,99.993896
2023-02-24T03:09:38.344Z,99.993896
2023-02-24T03:10:48.048Z,99.993896
2023-02-24T03:11:56.789Z,99.993896
2023-02-24T03:13:06.510Z,99.993896
2023-02-24T03:14:15.213Z,99.993896
2023-02-24T03:15:24.928Z,99.993896
2023-02-24T03:16:34.745Z,99.993896
2023-02-24T03:17:43.393Z,99.993896
2023-02-24T03:18:53.121Z,99.993896
2023-02-24T03:20:02.854Z,99.993896
2023-02-24T03:21:12.532Z,99.993896
2023-02-24T03:22:22.282Z,99.993896
2023-02-24T03:23:32.010Z,99.993896
2023-02-24T03:24:40.757Z,99.993896
2023-02-24T03:25:50.468Z,99.993896
2023-02-24T03:26:59.179Z,99.993896
2023-02-24T03:28:06.859Z,99.993896
2023-02-24T03:29:16.692Z,99.993896
2023-02-24T03:30:25.446Z,99.993896
2023-02-24T03:31:35.171Z,99.993896
2023-02-24T03:32:44.330Z,99.993896
2023-02-24T03:33:54.650Z,99.993896
2023-02-24T03:35:04.386Z,99.993896
2023-02-24T03:36:13.037Z,99.993896
2023-02-24T03:37:21.713Z,99.993896
2023-02-24T03:38:31.410Z,99.993896
2023-02-24T03:39:41.131Z,99.993896
2023-02-24T03:40:50.854Z,99.993896
2023-02-24T03:41:59.570Z,99.993896
2023-02-24T03:43:08.247Z,99.993896
2023-02-24T03:44:18.979Z,99.993896
2023-02-24T03:45:27.664Z,99.993896
2023-02-24T03:46:36.361Z,99.993896
2023-02-24T03:47:46.061Z,99.993896
2023-02-24T03:48:54.778Z,99.993896
2023-02-24T03:50:04.577Z,99.993896
2023-02-24T03:51:14.343Z,99.993896
2023-02-24T03:52:24.016Z,99.993896
2023-02-24T03:53:33.707Z,99.993896
2023-02-24T03:54:43.404Z,99.993896
2023-02-24T03:55:53.265Z,99.993896
2023-02-24T03:57:02.755Z,99.993896
2023-02-24T03:58:11.430Z,99.993896
2023-02-24T03:59:21.152Z,99.993896
2023-02-24T04:00:30.839Z,99.993896
2023-02-24T04:01:40.526Z,99.993896
2023-02-24T04:02:50.253Z,99.993896
2023-02-24T04:03:58.914Z,99.993896
2023-02-24T04:05:08.676Z,99.993896
2023-02-24T04:06:18.375Z,99.993896
2023-02-24T04:07:28.133Z,99.993896
2023-02-24T04:08:36.835Z,99.993896
2023-02-24T04:09:46.572Z,99.993896
2023-02-24T04:10:56.310Z,99.993896
2023-02-24T04:12:05.993Z,99.993896
2023-02-24T04:13:14.716Z,99.993896
2023-02-24T04:14:23.392Z,99.993896
2023-02-24T04:15:33.186Z,99.993896
2023-02-24T04:16:42.884Z,99.993896
2023-02-24T04:17:52.601Z,99.993896
2023-02-24T04:19:02.316Z,99.993896
2023-02-24T04:20:11.090Z,99.993896
2023-02-24T04:21:21.261Z,99.993896
2023-02-24T04:22:30.674Z,99.993896
2023-02-24T04:23:39.435Z,99.993896
2023-02-24T04:24:49.295Z,99.993896
2023-02-24T04:25:58.998Z,99.993896
2023-02-24T04:27:07.644Z,99.993896
2023-02-24T04:28:17.391Z,99.993896
2023-02-24T04:29:27.076Z,99.993896
2023-02-24T04:30:36.830Z,99.993896
2023-02-24T04:31:44.708Z,99.993896
2023-02-24T04:32:54.442Z,99.993896
2023-02-24T04:34:04.058Z,99.993896
2023-02-24T04:35:12.753Z,99.993896
2023-02-24T04:36:23.472Z,99.993896
2023-02-24T04:37:32.163Z,99.993896
2023-02-24T04:38:41.831Z,99.993896
2023-02-24T04:39:51.587Z,99.993896
2023-02-24T04:41:01.328Z,99.993896
2023-02-24T04:42:10.990Z,99.993896
2023-02-24T04:43:20.707Z,99.993896
2023-02-24T04:44:30.436Z,99.993896
2023-02-24T04:45:40.147Z,99.993896
2023-02-24T04:46:48.862Z,99.993896
2023-02-24T04:47:58.560Z,99.993896
2023-02-24T04:49:08.256Z,99.993896
2023-02-24T04:50:16.965Z,99.993896
2023-02-24T04:51:25.692Z,99.993896
2023-02-24T04:52:35.367Z,99.993896
2023-02-24T04:53:45.105Z,99.993896
2023-02-24T04:54:53.811Z,99.993896
2023-02-24T04:56:02.541Z,99.993896
2023-02-24T04:57:11.281Z,99.993896
2023-02-24T04:58:20.968Z,99.993896
2023-02-24T04:59:29.625Z,99.993896
2023-02-24T05:00:38.330Z,99.993896
2023-02-24T05:01:47.050Z,99.993896
2023-02-24T05:02:52.702Z,99.993896
2023-02-24T05:04:02.495Z,99.993896
2023-02-24T05:05:11.111Z,99.993896
2023-02-24T05:06:20.827Z,99.993896
2023-02-24T05:07:30.622Z,99.993896
2023-02-24T05:08:47.490Z,99.993896
2023-02-24T05:09:57.220Z,99.993896
2023-02-24T05:11:06.973Z,99.993896
2023-02-24T05:12:16.686Z,99.993896
2023-02-24T05:13:26.388Z,99.993896
2023-02-24T05:14:36.181Z,99.993896
2023-02-24T05:15:45.992Z,99.993896
2023-02-24T05:16:55.603Z,99.993896
2023-02-24T05:18:04.354Z,99.993896
2023-02-24T05:19:14.097Z,99.993896
2023-02-24T05:20:23.820Z,99.993896
2023-02-24T05:21:33.719Z,99.993896
2023-02-24T05:22:43.450Z,99.993896
2023-02-24T05:23:52.131Z,99.993896
2023-02-24T05:25:01.873Z,99.993896
2023-02-24T05:26:11.564Z,99.993896
2023-02-24T05:27:21.302Z,99.993896
2023-02-24T05:28:31.961Z,99.993896
2023-02-24T05:29:39.646Z,99.993896
2023-02-24T05:30:48.538Z,99.993896
2023-02-24T05:31:58.314Z,99.993896
2023-02-24T05:33:07.947Z,99.993896
2023-02-24T05:34:15.626Z,99.993896
2023-02-24T05:35:24.500Z,99.993896
2023-02-24T05:36:34.192Z,99.993896
2023-02-24T05:37:43.870Z,99.993896
2023-02-24T05:38:55.548Z,99.993896
2023-02-24T05:40:02.256Z,99.993896
2023-02-24T05:41:11.986Z,99.993896
2023-02-24T05:42:21.687Z,99.993896
2023-02-24T05:43:31.438Z,99.993896
2023-02-24T05:44:41.175Z,99.993896
2023-02-24T05:45:49.862Z,99.993896
2023-02-24T05:46:59.848Z,99.993896
2023-02-24T05:48:07.459Z,99.993896
2023-02-24T05:49:14.168Z,99.993896
2023-02-24T05:50:23.885Z,99.993896
2023-02-24T05:51:32.646Z,99.993896
2023-02-24T05:52:41.505Z,99.993896
2023-02-24T05:53:51.063Z,99.993896
2023-02-24T05:54:59.803Z,99.993896
2023-02-24T05:56:09.556Z,99.993896
2023-02-24T05:57:18.270Z,99.993896
2023-02-24T05:58:26.969Z,99.993896
2023-02-24T05:59:36.678Z,99.993896
2023-02-24T06:00:46.403Z,99.993896
2023-02-24T06:01:56.138Z,99.993896
2023-02-24T06:03:04.831Z,99.993896
2023-02-24T06:04:13.488Z,99.993896
2023-02-24T06:05:23.195Z,99.993896
2023-02-24T06:06:30.902Z,99.993896
2023-02-24T06:07:39.672Z,99.993896
2023-02-24T06:08:49.410Z,99.993896
2023-02-24T06:09:58.135Z,99.993896
2023-02-24T06:11:07.806Z,99.993896
2023-02-24T06:12:17.552Z,99.993896
2023-02-24T06:13:26.346Z,99.993896
2023-02-24T06:14:36.080Z,99.993896
2023-02-24T06:15:43.796Z,99.993896
2023-02-24T06:16:51.604Z,99.993896
2023-02-24T06:18:01.292Z,99.993896
2023-02-24T06:19:10.971Z,99.993896
2023-02-24T06:20:20.661Z,99.993896
2023-02-24T06:21:30.458Z,99.993896
2023-02-24T06:22:40.202Z,99.993896
2023-02-24T06:23:49.932Z,99.993896
2023-02-24T06:24:59.616Z,99.993896
2023-02-24T06:26:09.347Z,99.993896
2023-02-24T06:27:19.165Z,99.993896
2023-02-24T06:28:28.860Z,99.993896
2023-02-24T06:29:37.532Z,99.993896
2023-02-24T06:30:46.316Z,99.993896
2023-02-24T06:31:56.226Z,99.993896
2023-02-24T06:33:05.835Z,99.993896
2023-02-24T06:34:15.573Z,99.993896
2023-02-24T06:35:25.329Z,99.993896
2023-02-24T06:36:35.129Z,99.993896
2023-02-24T06:37:43.835Z,99.993896
2023-02-24T06:38:52.607Z,99.993896
2023-02-24T06:40:01.223Z,99.993896
2023-02-24T06:41:11.026Z,99.993896
2023-02-24T06:42:20.668Z,99.993896
2023-02-24T06:43:28.349Z,99.993896
2023-02-24T06:44:38.045Z,99.993896
2023-02-24T06:45:47.788Z,99.993896
2023-02-24T06:46:56.499Z,99.993896
2023-02-24T06:48:05.295Z,99.993896
2023-02-24T06:49:13.954Z,99.993896
2023-02-24T06:50:22.639Z,99.993896
2023-02-24T06:51:32.320Z,99.993896
2023-02-24T06:52:40.059Z,99.993896
2023-02-24T06:53:48.741Z,99.993896
2023-02-24T06:54:58.435Z,99.993896
2023-02-24T06:56:07.139Z,99.993896
2023-02-24T06:57:15.866Z,99.993896
2023-02-24T06:58:25.505Z,99.993896
2023-02-24T06:59:34.183Z,99.993896
2023-02-24T07:00:43.847Z,99.993896
2023-02-24T07:01:52.551Z,99.993896
2023-02-24T07:03:02.274Z,99.993896
2023-02-24T07:04:12.160Z,99.993896
2023-02-24T07:05:19.684Z,99.993896
2023-02-24T07:06:29.380Z,99.993896
2023-02-24T07:07:38.118Z,99.993896
2023-02-24T07:08:46.803Z,99.993896
2023-02-24T07:09:55.534Z,99.993896
2023-02-24T07:11:04.188Z,99.993896
2023-02-24T07:12:13.919Z,99.993896
2023-02-24T07:13:23.617Z,99.993896
2023-02-24T07:14:33.324Z,99.993896
2023-02-24T07:15:43.033Z,99.993896
2023-02-24T07:16:51.842Z,99.993896
2023-02-24T07:17:59.488Z,99.993896
2023-02-24T07:19:08.186Z,99.993896
2023-02-24T07:20:16.905Z,99.993896
2023-02-24T07:21:26.621Z,99.847412
2023-02-24T07:22:35.323Z,99.743652
2023-02-24T07:23:44.006Z,99.493408
2023-02-24T07:24:53.730Z,99.035645
2023-02-24T07:26:03.403Z,98.516846
2023-02-24T07:27:13.107Z,97.851562
2023-02-24T07:28:21.814Z,96.923828
2023-02-24T07:29:30.497Z,96.19751
2023-02-24T07:30:40.282Z,95.635986
2023-02-24T07:31:48.008Z,95.220947
2023-02-24T07:32:55.799Z,94.708252
2023-02-24T07:34:05.468Z,94.665527
2023-02-24T07:35:14.187Z,94.561768
2023-02-24T07:36:24.944Z,93.731689
2023-02-24T07:37:34.647Z,93.731689
2023-02-24T07:38:44.378Z,94.042969
2023-02-24T07:39:54.170Z,93.896484
2023-02-24T07:41:02.867Z,93.896484
2023-02-24T07:42:12.599Z,93.896484
2023-02-24T07:43:22.367Z,93.75
2023-02-24T07:44:32.108Z,93.499756
2023-02-24T07:45:41.816Z,92.224121
2023-02-24T07:46:50.481Z,91.601562
2023-02-24T07:48:01.273Z,91.766357
2023-02-24T07:49:08.890Z,91.107178
2023-02-24T07:50:17.595Z,90.386963
2023-02-24T07:51:25.262Z,90.136719
2023-02-24T07:52:35.978Z,89.727783
2023-02-24T07:53:45.649Z,89.538574
2023-02-24T07:54:55.379Z,88.720703
2023-02-24T07:56:05.048Z,87.487793
2023-02-24T07:57:14.850Z,86.968994
2023-02-24T07:58:24.476Z,87.689209
2023-02-24T07:59:34.168Z,87.585449
2023-02-24T08:00:43.852Z,87.487793
2023-02-24T08:01:53.617Z,87.176514
2023-02-24T08:03:03.433Z,87.420654
2023-02-24T08:04:12.123Z,87.670898
2023-02-24T08:05:21.905Z,88.287354
2023-02-24T08:06:31.533Z,88.635254
2023-02-24T08:07:41.254Z,89.251709
2023-02-24T08:08:50.047Z,89.770508
2023-02-24T08:09:58.767Z,90.179443
2023-02-24T08:11:08.431Z,90.283203
2023-02-24T08:12:18.516Z,90.386963
2023-02-24T08:13:27.865Z,90.283203
2023-02-24T08:14:36.570Z,90.179443
2023-02-24T08:15:45.350Z,90.386963
2023-02-24T08:16:55.077Z,90.179443
2023-02-24T08:18:04.754Z,90.637207
2023-02-24T08:19:13.551Z,90.838623
2023-02-24T08:20:23.245Z,91.003418
2023-02-24T08:21:32.936Z,90.899658
2023-02-24T08:22:41.647Z,90.594482
2023-02-24T08:23:51.423Z,91.003418
2023-02-24T08:25:01.070Z,90.899658
2023-02-24T08:26:10.820Z,90.899658
2023-02-24T08:27:20.487Z,90.551758
2023-02-24T08:28:30.173Z,90.447998
2023-02-24T08:29:39.881Z,90.447998
2023-02-24T08:30:49.632Z,90.197754
2023-02-24T08:31:58.438Z,89.788818
2023-02-24T08:33:08.030Z,89.685059
2023-02-24T08:34:16.742Z,89.685059
2023-02-24T08:35:26.420Z,89.935303
2023-02-24T08:36:35.132Z,90.032959
2023-02-24T08:37:43.829Z,90.447998
2023-02-24T08:38:53.537Z,90.447998
2023-02-24T08:40:02.270Z,90.447998
2023-02-24T08:41:09.938Z,90.197754
2023-02-24T08:42:17.587Z,90.197754
2023-02-24T08:43:28.285Z,90.197754
2023-02-24T08:44:36.990Z,89.581299
2023-02-24T08:45:47.680Z,89.996338
2023-02-24T08:46:57.442Z,90.405273
2023-02-24T08:48:07.061Z,90.509033
2023-02-24T08:49:15.768Z,90.509033
2023-02-24T08:50:24.514Z,90.093994
2023-02-24T08:51:33.262Z,90.301514
2023-02-24T08:52:42.988Z,90.466309
2023-02-24T08:53:52.722Z,90.057373
2023-02-24T08:55:01.445Z,90.093994
2023-02-24T08:56:11.212Z,90.362549
2023-02-24T08:57:20.914Z,90.362549
2023-02-24T08:58:29.604Z,90.155029
2023-02-24T08:59:39.354Z,90.258789
2023-02-24T09:00:48.109Z,90.362549
2023-02-24T09:02:04.449Z,90.216064
2023-02-24T09:03:08.438Z,89.807129
2023-02-24T09:04:17.234Z,89.398193
2023-02-24T09:05:26.877Z,89.190674
2023-02-24T09:06:36.603Z,89.147949
2023-02-24T09:07:45.361Z,88.842773
2023-02-24T09:08:55.096Z,88.592529
2023-02-24T09:10:03.836Z,88.391113
2023-02-24T09:11:13.654Z,88.079834
2023-02-24T09:12:23.245Z,87.982178
2023-02-24T09:13:33.169Z,88.079834
2023-02-24T09:14:42.748Z,88.079834
2023-02-24T09:15:52.432Z,87.982178
2023-02-24T09:17:00.171Z,88.287354
2023-02-24T09:18:09.931Z,88.140869
2023-02-24T09:19:18.668Z,88.208008
2023-02-24T09:20:27.360Z,88.409424
2023-02-24T09:21:37.109Z,87.548828
2023-02-24T09:22:45.771Z,86.688232
2023-02-24T09:23:55.483Z,86.340332
2023-02-24T09:25:03.230Z,86.035156
2023-02-24T09:26:12.985Z,85.748291
2023-02-24T09:27:22.740Z,84.58252
2023-02-24T09:28:31.396Z,83.660889
2023-02-24T09:29:41.170Z,83.831787
2023-02-24T09:30:49.949Z,83.728027
2023-02-24T09:31:59.777Z,82.769775
2023-02-24T09:33:09.393Z,81.90918
2023-02-24T09:34:18.059Z,81.506348
2023-02-24T09:35:26.743Z,81.567383
2023-02-24T09:36:36.434Z,81.298828
2023-02-24T09:37:47.137Z,81.365967
2023-02-24T09:38:55.880Z,80.749512
2023-02-24T09:40:04.597Z,80.853271
2023-02-24T09:41:18.765Z,80.645752
2023-02-24T09:42:23.949Z,80.853271
2023-02-24T09:43:33.674Z,81.365967
2023-02-24T09:44:42.350Z,81.323242
2023-02-24T09:45:52.137Z,80.914307
2023-02-24T09:47:01.868Z,81.121826
2023-02-24T09:48:11.507Z,81.121826
2023-02-24T09:49:22.209Z,80.609131
2023-02-24T09:50:59.398Z,80.46875
2023-02-24T09:51:42.559Z,79.998779
2023-02-24T09:52:55.519Z,80.200195
2023-02-24T09:54:00.977Z,80.548096
2023-02-24T09:55:10.685Z,81.262207
2023-02-24T09:56:19.347Z,81.463623
2023-02-24T09:57:28.068Z,81.744385
2023-02-24T09:58:43.621Z,82.562256
2023-02-24T09:59:48.883Z,83.422852
2023-02-24T10:00:57.130Z,83.624268
2023-02-24T10:02:07.814Z,84.094238
2023-02-24T10:03:17.495Z,83.648682
2023-02-24T10:04:27.167Z,82.891846
2023-02-24T10:05:36.888Z,81.732178
2023-02-24T10:06:45.612Z,80.371094
2023-02-24T10:07:55.345Z,79.962158
2023-02-24T10:09:04.061Z,79.821777
2023-02-24T10:10:13.819Z,78.497314
2023-02-24T10:11:21.663Z,78.497314
2023-02-24T10:12:30.208Z,79.144287
2023-02-24T10:13:39.973Z,79.449463
2023-02-24T10:14:51.567Z,79.656982
2023-02-24T10:16:06.080Z,79.211426
2023-02-24T10:17:11.002Z,79.376221
2023-02-24T10:18:20.719Z,78.387451
2023-02-24T10:19:30.443Z,77.368164
2023-02-24T10:20:39.337Z,76.861572
2023-02-24T10:21:47.863Z,77.026367
2023-02-24T10:22:57.573Z,75.805664
2023-02-24T10:24:07.254Z,75.872803
2023-02-24T10:25:21.038Z,75.872803
2023-02-24T10:26:26.625Z,76.2146
2023-02-24T10:27:35.321Z,76.556396
2023-02-24T10:28:45.048Z,76.452637
2023-02-24T10:29:52.712Z,76.928711
2023-02-24T10:31:01.647Z,78.460693
2023-02-24T10:32:11.369Z,78.051758
2023-02-24T10:33:20.908Z,77.606201
2023-02-24T10:34:29.605Z,76.654053
2023-02-24T10:35:38.313Z,76.861572
2023-02-24T10:36:46.994Z,76.416016
2023-02-24T10:37:56.702Z,74.957275
2023-02-24T10:39:05.400Z,75.061035
2023-02-24T10:40:13.091Z,75.262451
2023-02-24T10:41:23.089Z,74.957275
2023-02-24T10:42:32.499Z,74.6521
2023-02-24T10:43:41.185Z,75.299072
2023-02-24T10:45:01.083Z,75.976562
2023-02-24T10:45:59.579Z,77.032471
2023-02-24T10:47:09.277Z,77.783203
2023-02-24T10:48:18.029Z,78.393555
2023-02-24T10:49:27.678Z,78.735352
2023-02-24T10:50:39.339Z,79.486084
2023-02-24T10:51:48.090Z,79.693604
2023-02-24T10:52:56.903Z,79.351807
2023-02-24T10:54:05.564Z,79.248047
2023-02-24T10:55:15.221Z,78.497314
2023-02-24T10:56:24.945Z,78.295898
2023-02-24T10:57:32.643Z,78.192139
2023-02-24T10:58:43.445Z,77.886963
2023-02-24T10:59:52.274Z,77.545166
2023-02-24T11:01:00.975Z,77.642822
2023-02-24T11:02:10.580Z,77.23999
2023-02-24T11:03:32.371Z,77.508545
2023-02-24T11:04:30.887Z,77.301025
2023-02-24T11:05:39.634Z,76.385498
2023-02-24T11:06:49.301Z,76.452637
2023-02-24T11:07:59.050Z,75.946045
2023-02-24T11:09:08.759Z,75.946045
2023-02-24T11:10:17.489Z,75.842285
2023-02-24T11:11:27.181Z,75.604248
2023-02-24T11:12:36.871Z,75.091553
2023-02-24T11:13:45.554Z,75.195312
2023-02-24T11:14:55.216Z,75.195312
2023-02-24T11:16:04.980Z,74.279785
2023-02-24T11:17:14.600Z,74.584961
2023-02-24T11:18:22.278Z,74.346924
2023-02-24T11:19:31.956Z,74.108887
2023-02-24T11:20:48.809Z,73.0896
2023-02-24T11:21:52.344Z,72.955322
2023-02-24T11:23:02.025Z,73.059082
2023-02-24T11:24:11.688Z,72.753906
2023-02-24T11:25:21.392Z,72.619629
2023-02-24T11:26:31.088Z,71.502686
2023-02-24T11:27:39.754Z,71.801758
2023-02-24T11:28:48.441Z,71.636963
2023-02-24T11:29:58.133Z,72.247314
2023-02-24T11:31:06.958Z,72.381592
2023-02-24T11:32:16.592Z,72.686768
2023-02-24T11:33:25.255Z,73.193359
2023-02-24T11:34:34.965Z,72.888184
2023-02-24T11:35:44.613Z,72.784424
2023-02-24T11:36:54.333Z,72.412109
2023-02-24T11:38:02.997Z,72.955322
2023-02-24T11:39:19.633Z,73.297119
2023-02-24T11:40:23.361Z,74.279785
2023-02-24T11:41:33.051Z,75.201416
2023-02-24T11:42:41.749Z,75.402832
2023-02-24T11:43:50.449Z,75.201416
2023-02-24T11:45:00.145Z,75.604248
2023-02-24T11:46:08.498Z,75.543213
2023-02-24T11:47:16.613Z,75.543213
2023-02-24T11:48:26.268Z,75.848389
2023-02-24T11:49:34.954Z,75.708008
2023-02-24T11:50:44.632Z,75.543213
2023-02-24T11:51:53.320Z,76.049805
2023-02-24T11:53:03.022Z,76.251221
2023-02-24T11:54:12.686Z,76.013184
2023-02-24T11:55:21.382Z,75.640869
2023-02-24T11:56:30.077Z,75.439453
2023-02-24T11:57:39.766Z,75.744629
2023-02-24T11:58:49.430Z,75.744629
2023-02-24T11:59:58.103Z,76.251221
2023-02-24T12:01:07.820Z,76.287842
2023-02-24T12:02:17.522Z,76.391602
2023-02-24T12:03:27.281Z,76.593018
2023-02-24T12:04:35.957Z,76.696777
2023-02-24T12:05:45.668Z,76.965332
2023-02-24T12:06:55.389Z,76.049805
2023-02-24T12:08:04.073Z,76.35498
2023-02-24T12:09:13.775Z,76.086426
2023-02-24T12:10:23.452Z,76.251221
2023-02-24T12:11:32.163Z,76.287842
2023-02-24T12:12:41.821Z,76.800537
2023-02-24T12:13:50.506Z,76.800537
2023-02-24T12:14:59.174Z,77.038574
2023-02-24T12:16:08.922Z,77.142334
2023-02-24T12:17:18.645Z,77.44751
2023-02-24T12:18:27.263Z,77.34375
2023-02-24T12:19:37.262Z,77.34375
2023-02-24T12:20:46.693Z,77.246094
2023-02-24T12:21:56.516Z,77.514648
2023-02-24T12:23:04.196Z,77.410889
2023-02-24T12:24:13.921Z,77.716064
2023-02-24T12:25:23.613Z,77.923584
2023-02-24T12:26:32.344Z,77.716064
2023-02-24T12:27:42.109Z,77.618408
2023-02-24T12:28:50.812Z,77.618408
2023-02-24T12:29:59.494Z,77.716064
2023-02-24T12:31:09.349Z,77.819824
2023-02-24T12:32:18.033Z,78.02124
2023-02-24T12:33:26.595Z,78.265381
2023-02-24T12:34:36.281Z,78.466797
2023-02-24T12:35:45.986Z,78.466797
2023-02-24T12:36:55.672Z,78.674316
2023-02-24T12:38:04.417Z,79.693604
2023-02-24T12:39:14.070Z,80.303955
2023-02-24T12:40:23.734Z,80.548096
2023-02-24T12:41:32.521Z,80.24292
2023-02-24T12:42:42.175Z,80.645752
2023-02-24T12:43:51.863Z,81.262207
2023-02-24T12:45:00.582Z,81.158447
2023-02-24T12:46:09.319Z,81.018066
2023-02-24T12:47:17.974Z,80.511475
2023-02-24T12:48:27.664Z,80.102539
2023-02-24T12:49:37.355Z,80.102539
2023-02-24T12:50:47.033Z,79.998779
2023-02-24T12:51:56.833Z,79.998779
2023-02-24T12:53:07.166Z,80.200195
2023-02-24T12:54:16.867Z,79.998779
2023-02-24T12:55:25.552Z,80.102539
2023-02-24T12:56:33.256Z,80.102539
2023-02-24T12:57:40.924Z,80.102539
2023-02-24T12:58:49.670Z,80.200195
2023-02-24T12:59:59.264Z,80.407715
2023-02-24T13:01:09.003Z,80.609131
2023-02-24T13:02:18.708Z,80.712891
2023-02-24T13:03:28.404Z,80.81665
2023-02-24T13:04:38.086Z,81.085205
2023-02-24T13:05:47.765Z,80.877686
2023-02-24T13:06:56.486Z,80.981445
2023-02-24T13:08:06.230Z,81.286621
2023-02-24T13:09:14.864Z,81.390381
2023-02-24T13:10:24.545Z,81.286621